createdAt,value
2023-03-05T00:00:31.685Z,94880.50
2023-03-05T00:02:59.751Z,94880.50
2023-03-05T00:05:27.963Z,94843.81
2023-03-05T00:07:55.867Z,94876.09
2023-03-05T00:10:23.720Z,94875.44
2023-03-05T00:12:51.573Z,94872.31
2023-03-05T00:15:20.825Z,94857.97
2023-03-05T00:17:48.739Z,94850.88
2023-03-05T00:20:16.855Z,94867.56
2023-03-05T00:22:45.136Z,94840.16
2023-03-05T00:25:13.332Z,94860.66
2023-03-05T00:27:41.244Z,94847.09
2023-03-05T00:30:10.576Z,94858.59
2023-03-05T00:32:39.882Z,94851.69
2023-03-05T00:35:08.601Z,94857.97
2023-03-05T00:37:36.608Z,94852.28
2023-03-05T00:40:05.428Z,94852.28
2023-03-05T00:42:38.578Z,94857.63
2023-03-05T00:45:07.957Z,94847.38
2023-03-05T00:47:36.265Z,94759.69
2023-03-05T00:50:07.669Z,94814.03
2023-03-05T00:52:35.534Z,94831.78
2023-03-05T00:55:03.380Z,94833.22
2023-03-05T00:57:31.188Z,94823.16
2023-03-05T00:59:59.019Z,94818.56
2023-03-05T01:02:27.107Z,94812.44
2023-03-05T01:04:54.997Z,94816.53
2023-03-05T01:07:24.224Z,94804.09
2023-03-05T01:09:52.079Z,94818.44
2023-03-05T01:12:19.890Z,94805.34
2023-03-05T01:14:47.693Z,94827.72
2023-03-05T01:17:15.560Z,94802.50
2023-03-05T01:19:43.394Z,94775.28
2023-03-05T01:22:11.240Z,94821.53
2023-03-05T01:24:40.457Z,94811.59
2023-03-05T01:27:08.394Z,94813.31
2023-03-05T01:29:37.613Z,94809.72
2023-03-05T01:32:05.744Z,94806.13
2023-03-05T01:34:33.643Z,94808.31
2023-03-05T01:37:01.520Z,94802.94
2023-03-05T01:39:29.359Z,94776.38
2023-03-05T01:41:58.537Z,94802.34
2023-03-05T01:44:28.372Z,94795.41
2023-03-05T01:46:56.280Z,94801.56
2023-03-05T01:49:26.893Z,94795.72
2023-03-05T01:52:01.067Z,94801.25
2023-03-05T01:54:33.672Z,94774.31
2023-03-05T01:57:09.217Z,94803.78
2023-03-05T01:59:38.035Z,94807.25
2023-03-05T02:02:08.105Z,94804.06
2023-03-05T02:04:42.112Z,94769.47
2023-03-05T02:07:10.689Z,94811.81
2023-03-05T02:09:42.438Z,94785.97
2023-03-05T02:12:13.319Z,94804.88
2023-03-05T02:14:43.674Z,94807.72
2023-03-05T02:17:11.997Z,94787.56
2023-03-05T02:19:51.524Z,94803.13
2023-03-05T02:22:23.426Z,94801.25
2023-03-05T02:24:52.440Z,94814.03
2023-03-05T02:27:24.454Z,94803.78
2023-03-05T02:29:53.597Z,94809.00
2023-03-05T02:32:21.519Z,94805.19
2023-03-05T02:34:49.338Z,94808.69
2023-03-05T02:37:17.312Z,94805.53
2023-03-05T02:39:46.568Z,94786.66
2023-03-05T02:42:14.493Z,94789.63
2023-03-05T02:44:42.394Z,94799.72
2023-03-05T02:47:10.222Z,94794.53
2023-03-05T02:49:38.110Z,94814.53
2023-03-05T02:52:06.575Z,94745.25
2023-03-05T02:54:34.477Z,94806.97
2023-03-05T02:57:03.721Z,94817.81
2023-03-05T02:59:31.592Z,94807.13
2023-03-05T03:01:59.434Z,94807.91
2023-03-05T03:04:27.337Z,94784.78
2023-03-05T03:06:55.202Z,94802.88
2023-03-05T03:09:23.041Z,94800.50
2023-03-05T03:11:50.890Z,94802.25
2023-03-05T03:14:20.291Z,94811.69
2023-03-05T03:16:48.215Z,94811.84
2023-03-05T03:19:16.481Z,94806.50
2023-03-05T03:21:44.297Z,94793.91
2023-03-05T03:24:12.183Z,94811.38
2023-03-05T03:26:40.034Z,94802.91
2023-03-05T03:29:07.970Z,94797.06
2023-03-05T03:31:40.110Z,94813.25
2023-03-05T03:34:07.940Z,94797.38
2023-03-05T03:36:36.114Z,94816.75
2023-03-05T03:39:05.995Z,94780.94
2023-03-05T03:41:34.529Z,94747.28
2023-03-05T03:44:03.521Z,94819.56
2023-03-05T03:46:31.579Z,94761.72
2023-03-05T03:49:00.838Z,94804.94
2023-03-05T03:51:28.898Z,94816.25
2023-03-05T03:53:57.379Z,94791.38
2023-03-05T03:56:25.261Z,94819.09
2023-03-05T03:58:54.174Z,94837.34
2023-03-05T04:01:22.459Z,94826.97
2023-03-05T04:03:50.407Z,94814.53
2023-03-05T04:06:19.696Z,94793.69
2023-03-05T04:08:47.579Z,94777.16
2023-03-05T04:11:19.323Z,94786.44
2023-03-05T04:13:47.545Z,94811.47
2023-03-05T04:16:15.948Z,94820.19
2023-03-05T04:18:44.336Z,94825.34
2023-03-05T04:21:12.706Z,94827.56
2023-03-05T04:23:42.305Z,94820.00
2023-03-05T04:26:10.153Z,94816.22
2023-03-05T04:28:38.056Z,94823.75
2023-03-05T04:31:06.441Z,94802.69
2023-03-05T04:33:34.857Z,94800.94
2023-03-05T04:36:02.730Z,94756.06
2023-03-05T04:38:30.621Z,94821.59
2023-03-05T04:40:59.867Z,94798.41
2023-03-05T04:43:27.793Z,94814.97
2023-03-05T04:45:57.099Z,94788.97
2023-03-05T04:48:24.913Z,94785.97
2023-03-05T04:50:53.106Z,94786.63
2023-03-05T04:53:20.979Z,94783.31
2023-03-05T04:55:53.790Z,94785.97
2023-03-05T04:58:23.087Z,94811.50
2023-03-05T05:00:50.989Z,94798.75
2023-03-05T05:03:19.015Z,94809.44
2023-03-05T05:05:47.003Z,94805.50
2023-03-05T05:08:14.856Z,94808.97
2023-03-05T05:10:42.741Z,94778.53
2023-03-05T05:13:10.657Z,94805.97
2023-03-05T05:15:41.553Z,94817.13
2023-03-05T05:18:09.403Z,94825.97
2023-03-05T05:20:37.233Z,94765.03
2023-03-05T05:23:05.118Z,94824.25
2023-03-05T05:25:32.989Z,94819.06
2023-03-05T05:28:00.906Z,94777.63
2023-03-05T05:30:28.731Z,94797.63
2023-03-05T05:32:58.510Z,94814.31
2023-03-05T05:35:26.367Z,94807.53
2023-03-05T05:37:54.465Z,94815.41
2023-03-05T05:40:23.393Z,94829.66
2023-03-05T05:42:51.229Z,94796.13
2023-03-05T05:45:19.218Z,94781.31
2023-03-05T05:47:47.141Z,94819.25
2023-03-05T05:50:16.527Z,94827.91
2023-03-05T05:52:44.371Z,94815.13
2023-03-05T05:55:15.337Z,94835.47
2023-03-05T05:57:43.196Z,94832.13
2023-03-05T06:00:14.052Z,94835.03
2023-03-05T06:02:42.654Z,94824.94
2023-03-05T06:05:13.377Z,94834.38
2023-03-05T06:07:43.101Z,94831.81
2023-03-05T06:10:12.384Z,94801.22
2023-03-05T06:12:40.284Z,94849.41
2023-03-05T06:15:09.150Z,94840.16
2023-03-05T06:17:37.062Z,94838.41
2023-03-05T06:20:05.574Z,94819.00
2023-03-05T06:22:36.683Z,94837.88
2023-03-05T06:25:07.240Z,94834.47
2023-03-05T06:27:39.245Z,94839.09
2023-03-05T06:30:10.847Z,94835.38
2023-03-05T06:32:39.786Z,94853.34
2023-03-05T06:35:09.131Z,94854.47
2023-03-05T06:37:37.030Z,94867.53
2023-03-05T06:40:07.791Z,94860.91
2023-03-05T06:42:35.933Z,94852.75
2023-03-05T06:45:04.236Z,94858.25
2023-03-05T06:47:32.593Z,94860.75
2023-03-05T06:50:00.425Z,94728.88
2023-03-05T06:52:28.309Z,94860.09
2023-03-05T06:54:56.818Z,94846.09
2023-03-05T06:57:26.096Z,94854.72
2023-03-05T06:59:54.007Z,94860.19
2023-03-05T07:02:22.102Z,94863.75
2023-03-05T07:04:49.957Z,94869.78
2023-03-05T07:07:20.240Z,94864.03
2023-03-05T07:09:50.381Z,94851.69
2023-03-05T07:12:20.680Z,94862.91
2023-03-05T07:14:50.070Z,94866.09
2023-03-05T07:17:19.866Z,94867.00
2023-03-05T07:19:48.059Z,94848.78
2023-03-05T07:22:17.479Z,94863.66
2023-03-05T07:24:45.443Z,94801.72
2023-03-05T07:27:13.346Z,94859.19
2023-03-05T07:29:41.346Z,94856.72
2023-03-05T07:32:10.956Z,94853.47
2023-03-05T07:34:39.590Z,94855.81
2023-03-05T07:37:08.355Z,94841.66
2023-03-05T07:39:36.595Z,94836.84
2023-03-05T07:42:04.808Z,94336.28
2023-03-05T07:44:33.074Z,94852.31
2023-03-05T07:47:01.647Z,94848.63
2023-03-05T07:49:31.452Z,94854.19
2023-03-05T07:51:59.314Z,94853.50
2023-03-05T07:54:27.160Z,94833.56
2023-03-05T07:56:57.274Z,94798.06
2023-03-05T07:59:25.159Z,94803.53
2023-03-05T08:01:53.067Z,94858.56
2023-03-05T08:04:21.049Z,94860.97
2023-03-05T08:06:50.717Z,94840.28
2023-03-05T08:09:19.925Z,94848.81
2023-03-05T08:11:47.870Z,94855.34
2023-03-05T08:14:15.737Z,94863.66
2023-03-05T08:16:44.090Z,94823.94
2023-03-05T08:19:13.246Z,94851.66
2023-03-05T08:21:41.139Z,94802.38
2023-03-05T08:24:13.425Z,94819.09
2023-03-05T08:26:45.424Z,94846.13
2023-03-05T08:29:15.849Z,94848.28
2023-03-05T08:31:54.962Z,94836.72
2023-03-05T08:34:34.933Z,94852.44
2023-03-05T08:37:10.420Z,94850.63
2023-03-05T08:39:47.327Z,94848.75
2023-03-05T08:42:16.145Z,94844.59
2023-03-05T08:44:44.831Z,94837.44
2023-03-05T08:47:16.341Z,94778.41
2023-03-05T08:49:47.687Z,94787.81
2023-03-05T08:52:26.666Z,94832.81
2023-03-05T08:54:59.307Z,94832.94
2023-03-05T08:57:28.624Z,94834.84
2023-03-05T09:00:02.125Z,94822.28
2023-03-05T09:02:30.168Z,94822.59
2023-03-05T09:05:01.030Z,94770.56
2023-03-05T09:07:29.848Z,94806.66
2023-03-05T09:10:10.187Z,94806.22
2023-03-05T09:12:40.659Z,94810.94
2023-03-05T09:15:14.364Z,94814.81
2023-03-05T09:17:46.483Z,94793.41
2023-03-05T09:20:16.536Z,94764.25
2023-03-05T09:22:46.141Z,94800.81
2023-03-05T09:25:17.752Z,94811.16
2023-03-05T09:27:48.654Z,94795.88
2023-03-05T09:30:18.810Z,94808.72
2023-03-05T09:32:51.471Z,94795.41
2023-03-05T09:35:19.578Z,94798.09
2023-03-05T09:37:47.509Z,94814.50
2023-03-05T09:40:27.912Z,94758.50
2023-03-05T09:43:07.708Z,94792.47
2023-03-05T09:45:43.569Z,94786.13
2023-03-05T09:48:26.387Z,94775.13
2023-03-05T09:51:02.446Z,94786.78
2023-03-05T09:53:40.967Z,94774.88
2023-03-05T09:56:15.694Z,94776.38
2023-03-05T09:58:47.355Z,94773.84
2023-03-05T10:01:19.842Z,94774.09
2023-03-05T10:03:58.571Z,94747.66
2023-03-05T10:06:31.100Z,94766.50
2023-03-05T10:09:05.590Z,94763.06
2023-03-05T10:11:46.628Z,94762.03
2023-03-05T10:14:23.105Z,94754.69
2023-03-05T10:17:43.978Z,94747.69
2023-03-05T10:20:28.502Z,94733.13
2023-03-05T10:23:27.819Z,94724.69
2023-03-05T10:26:17.881Z,94733.31
2023-03-05T10:28:55.161Z,94719.56
2023-03-05T10:31:37.742Z,94718.44
2023-03-05T10:34:33.003Z,94717.47
2023-03-05T10:37:15.150Z,94678.94
2023-03-05T10:40:03.158Z,94714.38
2023-03-05T10:42:39.644Z,94702.50
2023-03-05T10:45:16.282Z,94663.50
2023-03-05T10:47:49.568Z,94701.47
2023-03-05T10:50:22.273Z,94697.38
2023-03-05T10:53:01.323Z,94693.28
2023-03-05T10:55:34.101Z,94696.69
2023-03-05T10:58:11.401Z,94705.22
2023-03-05T11:01:01.384Z,94691.31
2023-03-05T11:03:48.090Z,94646.56
2023-03-05T11:06:27.073Z,94674.88
2023-03-05T11:08:58.163Z,94554.41
2023-03-05T11:11:26.143Z,94620.16
2023-03-05T11:13:57.324Z,94669.44
2023-03-05T11:16:35.803Z,94668.63
2023-03-05T11:19:22.957Z,94645.41
2023-03-05T11:22:14.343Z,94626.56
2023-03-05T11:25:07.725Z,94657.44
2023-03-05T11:27:39.031Z,94661.88
2023-03-05T11:30:24.990Z,94647.97
2023-03-05T11:33:12.512Z,94648.94
2023-03-05T11:35:45.190Z,94650.88
2023-03-05T11:38:20.782Z,94646.69
2023-03-05T11:40:52.060Z,94637.09
2023-03-05T11:43:34.172Z,94627.47
2023-03-05T11:46:05.583Z,94629.50
2023-03-05T11:48:48.605Z,94617.13
2023-03-05T11:51:22.472Z,94619.97
2023-03-05T11:53:56.169Z,94595.72
2023-03-05T11:56:38.105Z,94603.56
2023-03-05T11:59:18.044Z,94602.63
2023-03-05T12:01:50.149Z,94614.03
2023-03-05T12:04:23.644Z,94594.81
2023-03-05T12:09:51.147Z,94590.94
2023-03-05T12:12:38.528Z,94578.19
2023-03-05T12:15:27.247Z,94556.97
2023-03-05T12:18:10.750Z,94549.06
2023-03-05T12:21:00.411Z,94571.84
2023-03-05T12:23:28.750Z,94581.34
2023-03-05T12:26:02.395Z,94574.94
2023-03-05T12:28:57.425Z,94568.94
2023-03-05T12:31:39.607Z,94555.44
2023-03-05T12:34:58.296Z,94525.84
2023-03-05T12:38:01.808Z,94564.00
2023-03-05T12:40:37.080Z,94557.25
2023-03-05T12:43:07.527Z,94557.56
2023-03-05T12:45:46.365Z,94570.41
2023-03-05T12:48:44.135Z,94555.00
2023-03-05T12:51:40.221Z,94420.44
2023-03-05T12:54:30.369Z,94535.31
2023-03-05T12:57:01.024Z,94555.53
2023-03-05T12:59:44.117Z,94518.91
2023-03-05T13:02:22.168Z,94525.38
2023-03-05T13:04:59.618Z,94550.00
2023-03-05T13:07:27.556Z,94541.72
2023-03-05T13:09:58.721Z,94531.53
2023-03-05T13:12:31.850Z,94483.94
2023-03-05T13:15:04.614Z,94550.53
2023-03-05T13:17:39.351Z,94550.84
2023-03-05T13:20:26.743Z,94514.47
2023-03-05T13:23:23.119Z,94539.31
2023-03-05T13:26:04.606Z,94526.88
2023-03-05T13:28:36.238Z,94499.00
2023-03-05T13:31:13.732Z,94541.75
2023-03-05T13:33:43.619Z,94523.19
2023-03-05T13:36:17.309Z,94453.53
2023-03-05T13:38:50.073Z,94544.25
2023-03-05T13:41:30.208Z,94472.31
2023-03-05T13:44:02.798Z,94543.72
2023-03-05T13:46:34.990Z,94505.31
2023-03-05T13:49:20.382Z,94478.91
2023-03-05T13:51:50.174Z,94543.00
2023-03-05T13:54:21.798Z,94520.41
2023-03-05T13:56:53.687Z,94546.47
2023-03-05T13:59:23.555Z,94532.88
2023-03-05T14:01:53.091Z,94541.75
2023-03-05T14:04:25.287Z,94539.38
2023-03-05T14:06:59.451Z,94537.50
2023-03-05T14:09:29.748Z,94531.06
2023-03-05T14:12:02.033Z,94537.97
2023-03-05T14:14:33.712Z,94537.19
2023-03-05T14:17:23.664Z,94523.69
2023-03-05T14:19:52.735Z,94527.94
2023-03-05T14:22:36.973Z,94379.91
2023-03-05T14:25:06.968Z,94532.22
2023-03-05T14:27:38.555Z,94525.88
2023-03-05T14:30:24.509Z,94487.59
2023-03-05T14:32:55.430Z,94528.88
2023-03-05T14:35:26.689Z,94509.59
2023-03-05T14:38:06.063Z,94476.63
2023-03-05T14:40:43.847Z,94530.13
2023-03-05T14:43:14.971Z,94316.03
2023-03-05T14:46:12.441Z,94510.78
2023-03-05T14:48:51.193Z,94530.50
2023-03-05T14:55:08.741Z,94526.41
2023-03-05T15:01:09.774Z,94536.91
2023-03-05T15:03:41.185Z,94521.78
2023-03-05T15:06:35.215Z,94531.56
2023-03-05T15:09:24.057Z,94535.47
2023-03-05T15:11:56.402Z,94530.97
2023-03-05T15:14:28.260Z,94536.03
2023-03-05T15:18:03.134Z,94527.94
2023-03-05T15:20:55.832Z,94539.28
2023-03-05T15:23:46.120Z,94207.72
2023-03-05T15:40:17.449Z,94535.06
2023-03-05T15:43:33.312Z,94431.59
2023-03-05T15:50:44.252Z,94502.78
2023-03-05T15:54:16.884Z,94545.78
2023-03-05T16:01:13.986Z,94523.50
2023-03-05T16:08:12.722Z,94280.56
2023-03-05T16:10:45.085Z,94570.41
2023-03-05T16:13:19.839Z,94574.53
2023-03-05T16:15:57.607Z,94554.59
2023-03-05T16:18:30.321Z,94569.28
2023-03-05T16:21:02.821Z,94557.47
2023-03-05T16:23:40.538Z,94564.09
2023-03-05T16:26:15.204Z,94560.63
2023-03-05T16:28:44.089Z,94567.44
2023-03-05T16:31:53.921Z,94546.59
2023-03-05T16:34:26.529Z,94575.94
2023-03-05T16:36:54.701Z,94566.50
2023-03-05T16:39:36.488Z,94568.28
2023-03-05T16:42:11.690Z,94568.38
2023-03-05T16:44:40.676Z,94587.72
2023-03-05T16:47:09.495Z,94584.34
2023-03-05T16:49:47.153Z,94580.09
2023-03-05T16:52:19.060Z,94560.91
2023-03-05T16:54:50.029Z,94587.53
2023-03-05T16:57:18.382Z,94595.63
2023-03-05T16:59:49.033Z,94422.34
2023-03-05T17:02:17.743Z,94597.59
2023-03-05T17:04:49.233Z,94453.19
2023-03-05T17:07:17.295Z,94551.09
2023-03-05T17:09:46.381Z,94615.06
2023-03-05T17:12:14.411Z,94600.16
2023-03-05T17:14:43.088Z,94622.28
2023-03-05T17:17:12.004Z,94619.19
2023-03-05T17:19:40.372Z,94632.75
2023-03-05T17:22:11.578Z,94615.69
2023-03-05T17:24:42.763Z,94592.44
2023-03-05T17:27:13.076Z,94633.16
2023-03-05T17:29:41.036Z,94570.19
2023-03-05T17:32:09.209Z,94620.63
2023-03-05T17:34:37.181Z,94634.81
2023-03-05T17:37:06.234Z,94637.34
2023-03-05T17:39:35.906Z,94642.44
2023-03-05T17:42:03.762Z,94637.41
2023-03-05T17:44:31.757Z,94643.69
2023-03-05T17:46:59.790Z,94636.97
2023-03-05T17:49:27.646Z,94640.31
2023-03-05T17:51:55.460Z,94651.16
2023-03-05T17:54:23.844Z,94655.59
2023-03-05T17:56:56.565Z,94650.88
2023-03-05T17:59:26.117Z,94656.22
2023-03-05T18:01:54.072Z,94648.22
2023-03-05T18:04:25.553Z,94663.97
2023-03-05T18:06:53.457Z,94614.75
2023-03-05T18:09:21.373Z,94660.06
2023-03-05T18:11:49.192Z,94613.97
2023-03-05T18:14:19.405Z,94658.50
2023-03-05T18:20:04.169Z,94673.16
2023-03-05T18:23:09.455Z,94667.81
2023-03-05T18:25:37.624Z,94678.34
2023-03-05T18:28:10.604Z,94676.31
2023-03-05T18:30:42.089Z,94486.88
2023-03-05T18:33:19.879Z,94626.56
2023-03-05T18:35:53.044Z,94670.34
2023-03-05T18:38:26.584Z,94679.44
2023-03-05T18:40:57.839Z,94678.97
2023-03-05T18:43:54.361Z,94685.28
2023-03-05T18:49:36.303Z,94684.81
2023-03-05T18:52:32.249Z,94633.53
2023-03-05T18:55:09.918Z,94686.53
2023-03-05T18:57:50.372Z,94684.94
2023-03-05T19:00:40.913Z,94687.47
2023-03-05T19:03:45.510Z,94689.97
2023-03-05T19:13:41.169Z,94699.09
2023-03-05T19:16:34.896Z,94701.28
2023-03-05T19:19:35.031Z,94711.03
2023-03-05T19:22:27.113Z,94411.47
2023-03-05T19:30:33.169Z,94723.56
2023-03-05T19:33:20.448Z,94675.38
2023-03-05T19:36:01.218Z,94698.50
2023-03-05T19:38:37.150Z,94724.81
2023-03-05T19:41:14.469Z,94725.75
2023-03-05T19:46:36.465Z,94716.59
2023-03-05T19:49:06.429Z,94671.84
2023-03-05T19:52:24.499Z,94712.97
2023-03-05T19:55:09.189Z,94728.69
2023-03-05T19:57:46.277Z,94686.66
2023-03-05T20:00:35.536Z,94730.56
2023-03-05T20:03:06.515Z,94700.47
2023-03-05T20:05:37.346Z,94632.44
2023-03-05T20:08:26.407Z,94723.75
2023-03-05T20:11:07.392Z,94731.91
2023-03-05T20:17:01.561Z,94744.00
2023-03-05T20:19:59.141Z,94290.16
2023-03-05T20:26:10.098Z,94738.25
2023-03-05T20:28:56.050Z,94748.47
2023-03-05T20:34:41.692Z,94752.00
2023-03-05T20:37:52.956Z,94735.13
2023-03-05T20:40:35.647Z,94746.97
2023-03-05T20:43:21.786Z,94701.56
2023-03-05T20:48:59.544Z,94748.47
2023-03-05T20:51:54.122Z,94595.28
2023-03-05T20:54:27.510Z,94753.16
2023-03-05T20:57:17.009Z,94728.44
2023-03-05T20:59:59.631Z,94745.28
2023-03-05T21:03:05.527Z,94721.16
2023-03-05T21:05:42.020Z,94746.06
2023-03-05T21:08:14.837Z,94745.16
2023-03-05T21:10:50.249Z,94679.16
2023-03-05T21:13:28.186Z,94734.91
2023-03-05T21:16:01.676Z,94734.25
2023-03-05T21:18:32.413Z,94736.59
2023-03-05T21:21:16.793Z,94746.59
2023-03-05T21:23:48.290Z,94682.78
2023-03-05T21:26:20.208Z,94724.47
2023-03-05T21:28:53.578Z,94739.63
2023-03-05T21:31:34.058Z,94702.94
2023-03-05T21:34:03.881Z,94728.00
2023-03-05T21:36:33.091Z,94695.69
2023-03-05T21:39:03.971Z,94728.00
2023-03-05T21:41:34.601Z,94724.22
2023-03-05T21:44:07.115Z,94726.16
2023-03-05T21:46:37.652Z,94724.28
2023-03-05T21:52:13.162Z,94723.81
2023-03-05T21:54:47.138Z,94718.34
2023-03-05T21:57:24.432Z,94714.53
2023-03-05T22:00:07.547Z,94711.50
2023-03-05T22:02:42.458Z,94689.09
2023-03-05T22:05:23.938Z,94663.22
2023-03-05T22:07:51.917Z,94715.88
2023-03-05T22:10:23.436Z,94690.41
2023-03-05T22:13:17.927Z,94717.22
2023-03-05T22:15:48.036Z,94698.91
2023-03-05T22:18:19.264Z,94724.72
2023-03-05T22:20:47.574Z,94673.13
2023-03-05T22:23:16.625Z,94713.81
2023-03-05T22:25:45.229Z,94723.06
2023-03-05T22:28:18.457Z,94718.72
2023-03-05T22:30:49.707Z,94722.28
2023-03-05T22:33:22.013Z,94707.03
2023-03-05T22:35:51.281Z,94652.00
2023-03-05T22:38:19.611Z,94697.06
2023-03-05T22:40:49.478Z,94658.41
2023-03-05T22:43:18.760Z,94727.53
2023-03-05T22:45:46.769Z,94708.09
2023-03-05T22:48:15.506Z,94713.06
2023-03-05T22:50:45.365Z,94719.44
2023-03-05T22:53:13.747Z,94725.66
2023-03-05T22:55:43.120Z,94732.34
2023-03-05T22:58:11.207Z,94710.66
2023-03-05T23:00:39.505Z,94665.44
2023-03-05T23:03:07.897Z,94730.00
2023-03-05T23:05:36.456Z,94727.69
2023-03-05T23:08:06.482Z,94727.72
2023-03-05T23:10:34.896Z,94725.84
2023-03-05T23:13:03.354Z,94712.47
2023-03-05T23:15:33.029Z,94730.91
2023-03-05T23:18:01.104Z,94709.00
2023-03-05T23:20:32.222Z,94737.22
2023-03-05T23:23:00.799Z,94600.75
2023-03-05T23:25:31.813Z,94746.38
2023-03-05T23:28:00.820Z,94722.63
2023-03-05T23:30:29.570Z,94750.72
2023-03-05T23:32:59.455Z,94711.59
2023-03-05T23:35:29.311Z,94694.41
2023-03-05T23:37:58.439Z,94754.28
2023-03-05T23:40:30.363Z,94753.31
2023-03-05T23:42:58.414Z,94722.59
2023-03-05T23:45:26.974Z,94765.84
2023-03-05T23:47:54.854Z,94752.38
2023-03-05T23:50:26.196Z,94762.66
2023-03-05T23:52:55.264Z,94714.81
2023-03-05T23:55:25.787Z,94682.63
2023-03-05T23:57:56.741Z,94759.84
